Time;durP1;ratioP1;P1;durP2;ratioP2;P2;SDS_P1;SDS_P2;PMS_P1;PMS_P2;Temp;Humidity;BMP_temperature;BMP_pressure;BME280_temperature;BME280_humidity;BME280_pressure;Samples;Min_cycle;Max_cycle;Signal;HPM_P1;HPM_P2
2021/03/18 00:02:16;;;;;;;;;;;1.40;99.90;;;;;;4946393;28;19914;-73
2021/03/18 00:04:43;;;;;;;;;;;1.40;99.90;;;;;;4969613;28;20594;-73
2021/03/18 00:07:09;;;;;;;;;;;1.40;99.90;;;;;;4969579;28;20271;-73
2021/03/18 00:09:37;;;;;;;;;;;1.50;99.90;;;;;;4952367;28;19910;-73
2021/03/18 00:12:02;;;;;;;;;;;1.50;99.80;;;;;;4947706;28;20386;-73
2021/03/18 00:14:30;;;;;;;;;;;1.50;99.90;;;;;;4968003;28;19926;-73
2021/03/18 00:16:56;;;;;;;;;;;1.50;99.90;;;;;;4970092;28;20001;-73
2021/03/18 00:19:21;;;;;;;;;;;1.50;99.70;;;;;;4955958;28;19996;-73
2021/03/18 00:21:47;;;;;;;;;;;1.40;99.80;;;;;;4972496;28;19977;-73
2021/03/18 00:24:13;;;;;;;;;;;1.50;99.90;;;;;;4970963;28;19922;-73
2021/03/18 00:26:39;;;;;;;;;;;1.50;99.90;;;;;;4972552;28;19934;-72
2021/03/18 00:29:04;;;;;;;;;;;1.50;99.90;;;;;;4973121;28;20486;-73
2021/03/18 00:31:33;;;;;;;;;;;1.40;99.90;;;;;;4973573;28;20455;-73
2021/03/18 00:33:58;;;;;;;;;;;1.50;99.90;;;;;;4973361;28;19952;-72
2021/03/18 00:36:24;;;;;;;;;;;1.50;99.90;;;;;;4966742;28;20495;-72
2021/03/18 00:38:49;;;;;;;;;;;1.40;99.90;;;;;;4961162;28;20443;-73
2021/03/18 00:41:15;;;;;;;;;;;1.40;99.90;;;;;;4942277;28;19949;-72
2021/03/18 00:43:41;;;;;;;;;;;1.40;99.90;;;;;;4960355;28;19922;-72
2021/03/18 00:46:09;;;;;;;;;;;1.40;99.90;;;;;;4963930;28;19969;-72
2021/03/18 00:48:37;;;;;;;;;;;1.40;99.90;;;;;;4955106;28;20122;-72
2021/03/18 00:51:12;;;;;;;;;;;1.30;99.90;;;;;;4973582;28;19910;-72
2021/03/18 00:53:38;;;;;;;;;;;1.40;99.90;;;;;;4938639;28;19928;-72
2021/03/18 00:56:05;;;;;;;;;;;1.30;99.90;;;;;;4972187;28;20814;-72
2021/03/18 00:58:30;;;;;;;;;;;1.40;99.90;;;;;;4972889;28;19964;-72
2021/03/18 01:00:57;;;;;;;;;;;1.40;99.90;;;;;;4972260;28;19957;-72
2021/03/18 01:03:25;;;;;;;;;;;1.40;99.90;;;;;;4972214;28;19943;-72
2021/03/18 01:05:54;;;;;;;;;;;1.30;99.90;;;;;;4972479;28;20062;-73
2021/03/18 01:08:23;;;;;;;;;;;1.30;99.90;;;;;;4972260;28;21868;-72
2021/03/18 01:10:50;;;;;;;;;;;1.30;99.90;;;;;;4953981;28;19920;-72
2021/03/18 01:13:19;;;;;;;;;;;1.30;99.90;;;;;;4960529;28;20012;-73
2021/03/18 01:15:53;;;;;;;;;;;1.30;99.90;;;;;;4961538;28;19918;-72
2021/03/18 01:18:24;;;;;;;;;;;1.30;99.90;;;;;;4959797;28;19918;-72
2021/03/18 01:20:52;;;;;;;;;;;1.30;99.90;;;;;;4940550;28;20379;-73
2021/03/18 01:23:18;;;;;;;;;;;1.30;99.90;;;;;;4940266;28;19922;-72
2021/03/18 01:25:45;;;;;;;;;;;1.30;99.90;;;;;;4960913;28;20259;-73
2021/03/18 01:28:12;;;;;;;;;;;1.30;99.90;;;;;;4947874;28;19910;-72
2021/03/18 01:30:38;;;;;;;;;;;1.30;99.90;;;;;;4970146;28;20279;-73
2021/03/18 01:33:03;;;;;;;;;;;1.20;99.90;;;;;;4955195;28;19918;-73
2021/03/18 01:35:29;;;;;;;;;;;1.20;99.90;;;;;;4971188;28;19918;-72
2021/03/18 01:37:54;;;;;;;;;;;1.20;99.90;;;;;;4961819;28;20822;-72
2021/03/18 01:40:21;;;;;;;;;;;1.20;99.90;;;;;;4960654;28;19925;-72
2021/03/18 01:42:49;;;;;;;;;;;1.20;99.90;;;;;;4938949;28;19914;-72
2021/03/18 01:45:15;;;;;;;;;;;1.20;99.90;;;;;;4942954;28;20567;-73
2021/03/18 01:47:41;;;;;;;;;;;1.20;99.90;;;;;;4959502;28;20017;-72
2021/03/18 01:50:09;;;;;;;;;;;1.20;99.90;;;;;;4958034;28;19937;-72
2021/03/18 01:52:38;;;;;;;;;;;1.20;99.90;;;;;;4944332;28;20471;-72
2021/03/18 01:55:06;;;;;;;;;;;1.10;99.90;;;;;;4971803;28;20572;-72
2021/03/18 01:57:32;;;;;;;;;;;1.10;99.90;;;;;;4952075;28;19910;-72
2021/03/18 01:59:58;;;;;;;;;;;1.10;99.90;;;;;;4971805;28;20255;-72
2021/03/18 02:02:25;;;;;;;;;;;1.10;99.90;;;;;;4953494;28;20047;-72
2021/03/18 02:04:53;;;;;;;;;;;1.10;99.90;;;;;;4941786;28;19958;-72
2021/03/18 02:07:21;;;;;;;;;;;1.10;99.90;;;;;;4960994;28;19980;-73
2021/03/18 02:09:46;;;;;;;;;;;1.10;99.90;;;;;;4960080;28;20005;-73
2021/03/18 02:12:12;;;;;;;;;;;1.10;99.90;;;;;;4958998;28;20928;-72
2021/03/18 02:14:37;;;;;;;;;;;1.00;99.90;;;;;;4959954;28;19924;-71
2021/03/18 02:17:04;;;;;;;;;;;1.10;99.90;;;;;;4931135;28;19924;-72
2021/03/18 02:19:29;;;;;;;;;;;1.10;99.90;;;;;;4958785;28;20021;-71
2021/03/18 02:22:14;;;;;;;;;;;1.00;99.90;;;;;;4937659;28;19918;-72
2021/03/18 02:24:45;;;;;;;;;;;1.10;99.90;;;;;;4958806;28;19922;-72
2021/03/18 02:27:34;;;;;;;;;;;1.10;99.90;;;;;;4958128;28;20421;-71
2021/03/18 02:30:02;;;;;;;;;;;1.10;99.90;;;;;;4940914;28;20008;-71
2021/03/18 02:32:44;;;;;;;;;;;1.10;99.90;;;;;;4959442;28;19918;-72
2021/03/18 02:35:12;;;;;;;;;;;1.10;99.90;;;;;;4959266;28;19973;-72
2021/03/18 02:37:38;;;;;;;;;;;1.10;99.90;;;;;;4936748;28;19920;-71
2021/03/18 02:40:10;;;;;;;;;;;1.10;99.90;;;;;;4928653;28;19918;-72
2021/03/18 02:42:36;;;;;;;;;;;1.10;99.90;;;;;;4935160;28;19929;-72
2021/03/18 02:45:04;;;;;;;;;;;1.10;99.90;;;;;;4958279;28;19921;-73
2021/03/18 02:47:32;;;;;;;;;;;1.20;99.90;;;;;;4965126;28;20336;-72
2021/03/18 02:49:58;;;;;;;;;;;1.20;99.90;;;;;;4952644;28;19957;-72
2021/03/18 02:52:24;;;;;;;;;;;1.20;99.90;;;;;;4952894;28;19965;-71
2021/03/18 02:54:53;;;;;;;;;;;1.10;99.90;;;;;;4937209;28;19946;-71
2021/03/18 02:57:21;;;;;;;;;;;1.10;99.90;;;;;;4969042;28;19921;-73
2021/03/18 02:59:49;;;;;;;;;;;1.10;99.90;;;;;;4954067;28;19925;-72
2021/03/18 03:02:16;;;;;;;;;;;1.10;99.90;;;;;;4950390;28;19910;-72
2021/03/18 03:04:41;;;;;;;;;;;1.00;99.90;;;;;;4937095;28;19926;-72
2021/03/18 03:07:07;;;;;;;;;;;1.10;99.90;;;;;;4958607;28;19921;-73
2021/03/18 03:09:35;;;;;;;;;;;1.10;99.90;;;;;;4960866;28;19966;-72
2021/03/18 03:12:01;;;;;;;;;;;1.00;99.90;;;;;;4952703;28;19910;-73
2021/03/18 03:14:26;;;;;;;;;;;1.00;99.90;;;;;;4948169;28;19914;-72
2021/03/18 03:16:54;;;;;;;;;;;1.00;99.90;;;;;;4940923;28;19999;-73
2021/03/18 03:19:22;;;;;;;;;;;1.00;99.90;;;;;;4958123;28;19918;-73
2021/03/18 03:21:50;;;;;;;;;;;1.00;99.90;;;;;;4939729;28;19918;-73
2021/03/18 03:24:16;;;;;;;;;;;1.00;99.90;;;;;;4958093;28;19918;-72
2021/03/18 03:26:41;;;;;;;;;;;1.00;99.90;;;;;;4936080;28;19929;-72
2021/03/18 03:29:07;;;;;;;;;;;1.00;99.90;;;;;;4935123;28;19914;-72
2021/03/18 03:31:33;;;;;;;;;;;1.00;99.90;;;;;;4936098;28;19929;-73
2021/03/18 03:34:00;;;;;;;;;;;1.00;99.90;;;;;;4965956;28;19918;-72
2021/03/18 03:36:30;;;;;;;;;;;1.00;99.90;;;;;;4970007;28;19914;-73
2021/03/18 03:38:58;;;;;;;;;;;0.90;99.90;;;;;;4955561;28;19925;-72
2021/03/18 03:41:24;;;;;;;;;;;1.00;99.90;;;;;;4957991;28;19969;-72
2021/03/18 03:43:50;;;;;;;;;;;0.90;99.90;;;;;;4957671;28;19918;-72
2021/03/18 03:46:15;;;;;;;;;;;1.00;99.90;;;;;;4957576;28;19976;-73
2021/03/18 03:48:41;;;;;;;;;;;0.90;99.90;;;;;;4957742;28;20005;-72
2021/03/18 03:51:06;;;;;;;;;;;0.90;99.90;;;;;;4947077;28;19916;-72
2021/03/18 03:53:42;;;;;;;;;;;1.00;99.90;;;;;;4952543;28;19910;-72
2021/03/18 03:56:07;;;;;;;;;;;1.00;99.90;;;;;;4952218;28;19920;-72
2021/03/18 03:58:51;;;;;;;;;;;0.90;99.90;;;;;;4969022;28;19909;-73
2021/03/18 04:01:37;;;;;;;;;;;0.90;99.90;;;;;;4966865;28;19910;-73
2021/03/18 04:04:12;;;;;;;;;;;0.90;99.90;;;;;;4924310;28;20016;-72
2021/03/18 04:06:38;;;;;;;;;;;1.00;99.90;;;;;;4940570;28;19914;-72
2021/03/18 04:09:06;;;;;;;;;;;1.00;99.90;;;;;;4926647;28;19945;-72
2021/03/18 04:11:35;;;;;;;;;;;1.00;99.90;;;;;;4958625;28;20322;-72
2021/03/18 04:14:02;;;;;;;;;;;1.00;99.90;;;;;;4939960;28;19929;-72
2021/03/18 04:16:30;;;;;;;;;;;1.00;99.90;;;;;;4940482;28;19918;-72
2021/03/18 04:18:56;;;;;;;;;;;1.00;99.90;;;;;;4936638;28;19914;-72
2021/03/18 04:21:21;;;;;;;;;;;1.10;99.90;;;;;;4936478;28;20000;-72
2021/03/18 04:23:47;;;;;;;;;;;1.10;99.90;;;;;;4956602;28;19965;-73
2021/03/18 04:26:15;;;;;;;;;;;1.10;99.90;;;;;;4926967;28;20255;-73
2021/03/18 04:28:40;;;;;;;;;;;1.10;99.90;;;;;;4957599;28;19965;-72
2021/03/18 04:31:06;;;;;;;;;;;1.10;99.90;;;;;;4957259;28;20055;-73
2021/03/18 04:33:32;;;;;;;;;;;1.10;99.90;;;;;;4922775;28;19914;-73
2021/03/18 04:35:57;;;;;;;;;;;1.20;99.90;;;;;;4957606;28;19929;-73
2021/03/18 04:38:28;;;;;;;;;;;1.20;99.90;;;;;;4958234;28;19914;-72
2021/03/18 04:40:53;;;;;;;;;;;1.20;99.90;;;;;;4943692;28;20467;-73
2021/03/18 04:43:22;;;;;;;;;;;1.20;99.90;;;;;;4922760;28;19919;-73
2021/03/18 04:45:47;;;;;;;;;;;1.20;99.90;;;;;;4961364;28;19921;-74
2021/03/18 04:48:15;;;;;;;;;;;1.20;99.90;;;;;;4951033;28;19922;-73
2021/03/18 04:50:41;;;;;;;;;;;1.20;99.90;;;;;;4951912;28;20224;-73
2021/03/18 04:53:06;;;;;;;;;;;1.30;99.90;;;;;;4950979;28;19928;-72
2021/03/18 04:55:34;;;;;;;;;;;1.30;99.90;;;;;;4947232;28;19910;-73
2021/03/18 04:58:03;;;;;;;;;;;1.40;99.90;;;;;;4926080;28;20000;-73
2021/03/18 05:00:29;;;;;;;;;;;1.40;99.90;;;;;;4923273;28;19929;-73
2021/03/18 05:03:01;;;;;;;;;;;1.40;99.90;;;;;;4957287;28;19917;-72
2021/03/18 05:05:26;;;;;;;;;;;1.40;99.90;;;;;;4940106;28;20462;-74
2021/03/18 05:07:52;;;;;;;;;;;1.50;99.90;;;;;;4960519;28;20009;-73
2021/03/18 05:10:21;;;;;;;;;;;1.50;99.90;;;;;;4922323;28;19914;-74
2021/03/18 05:12:47;;;;;;;;;;;1.50;99.90;;;;;;4943151;28;19925;-73
2021/03/18 05:15:15;;;;;;;;;;;1.50;99.90;;;;;;4937266;28;20479;-73
2021/03/18 05:17:41;;;;;;;;;;;1.60;99.90;;;;;;4923794;28;19918;-73
2021/03/18 05:20:09;;;;;;;;;;;1.60;99.90;;;;;;4960360;28;19922;-73
2021/03/18 05:22:34;;;;;;;;;;;1.60;99.90;;;;;;4945497;28;21700;-73
2021/03/18 05:25:03;;;;;;;;;;;1.70;99.90;;;;;;4938029;28;19929;-73
2021/03/18 05:27:29;;;;;;;;;;;1.70;99.90;;;;;;4938807;28;19928;-73
2021/03/18 05:29:57;;;;;;;;;;;1.70;99.90;;;;;;4960369;28;20283;-73
2021/03/18 05:32:22;;;;;;;;;;;1.80;99.90;;;;;;4943079;28;19914;-74
2021/03/18 05:34:50;;;;;;;;;;;1.80;99.90;;;;;;4938786;28;19914;-73
2021/03/18 05:37:18;;;;;;;;;;;1.80;99.90;;;;;;4946640;28;19915;-74
2021/03/18 05:39:44;;;;;;;;;;;1.80;99.90;;;;;;4960722;28;20540;-73
2021/03/18 05:42:11;;;;;;;;;;;1.80;99.90;;;;;;4959729;28;19915;-74
2021/03/18 05:44:40;;;;;;;;;;;1.80;99.90;;;;;;4966649;28;20376;-73
2021/03/18 05:47:05;;;;;;;;;;;1.80;99.90;;;;;;4971925;28;19918;-74
2021/03/18 05:49:31;;;;;;;;;;;1.80;99.90;;;;;;4953734;28;19910;-73
2021/03/18 05:52:02;;;;;;;;;;;1.80;99.90;;;;;;4961697;28;19922;-74
2021/03/18 05:54:27;;;;;;;;;;;1.80;99.90;;;;;;4938118;28;19933;-74
2021/03/18 05:56:53;;;;;;;;;;;1.90;99.90;;;;;;4937871;28;20337;-73
2021/03/18 05:59:18;;;;;;;;;;;1.80;99.90;;;;;;4938004;28;20267;-73
2021/03/18 06:01:44;;;;;;;;;;;1.90;99.90;;;;;;4958728;28;21104;-73
2021/03/18 06:04:12;;;;;;;;;;;1.80;99.90;;;;;;4959706;28;19922;-73
2021/03/18 06:06:38;;;;;;;;;;;1.80;99.90;;;;;;4959242;28;20335;-74
2021/03/18 06:09:07;;;;;;;;;;;1.80;99.90;;;;;;4938411;28;19969;-73
2021/03/18 06:11:35;;;;;;;;;;;1.80;99.90;;;;;;4964191;28;19946;-73
2021/03/18 06:14:03;;;;;;;;;;;1.90;99.90;;;;;;4970195;28;19928;-73
2021/03/18 06:16:29;;;;;;;;;;;1.90;99.90;;;;;;4944930;28;20518;-74
2021/03/18 06:18:54;;;;;;;;;;;1.90;99.90;;;;;;4960241;28;19924;-73
2021/03/18 06:21:40;;;;;;;;;;;1.90;99.90;;;;;;4940588;28;20073;-72
2021/03/18 06:24:05;;;;;;;;;;;1.90;99.90;;;;;;4960236;28;19922;-74
2021/03/18 06:26:37;;;;;;;;;;;1.90;99.90;;;;;;4967244;28;19910;-73
2021/03/18 06:29:03;;;;;;;;;;;1.90;99.90;;;;;;4970335;28;20056;-73
2021/03/18 06:31:29;;;;;;;;;;;2.00;99.90;;;;;;4970885;28;19928;-74
2021/03/18 06:33:55;;;;;;;;;;;2.00;99.90;;;;;;4969995;28;19918;-74
2021/03/18 06:36:24;;;;;;;;;;;2.00;99.90;;;;;;4970119;28;19918;-74
2021/03/18 06:39:21;;;;;;;;;;;2.00;99.90;;;;;;4964375;28;19914;-74
2021/03/18 06:41:48;;;;;;;;;;;2.00;99.90;;;;;;4942229;28;19965;-73
2021/03/18 06:44:19;;;;;;;;;;;2.00;99.90;;;;;;4943994;28;20009;-73
2021/03/18 06:46:47;;;;;;;;;;;2.00;99.90;;;;;;4957971;28;19910;-73
2021/03/18 06:49:13;;;;;;;;;;;2.10;99.90;;;;;;4959011;28;19925;-73
2021/03/18 06:51:39;;;;;;;;;;;2.10;99.90;;;;;;4955755;28;20013;-73
2021/03/18 06:54:16;;;;;;;;;;;2.20;99.90;;;;;;4936559;28;19921;-74
2021/03/18 06:56:42;;;;;;;;;;;2.10;99.90;;;;;;4941502;28;19966;-74
2021/03/18 06:59:19;;;;;;;;;;;2.20;99.90;;;;;;4938398;28;19988;-74
2021/03/18 07:01:52;;;;;;;;;;;2.20;99.90;;;;;;4939822;28;19977;-74
2021/03/18 07:04:20;;;;;;;;;;;2.30;99.90;;;;;;4925140;28;19922;-74
2021/03/18 07:06:50;;;;;;;;;;;2.30;99.90;;;;;;4940067;28;19949;-73
2021/03/18 07:09:18;;;;;;;;;;;2.30;99.90;;;;;;4937533;28;19918;-79
2021/03/18 07:11:49;;;;;;;;;;;2.40;99.90;;;;;;4950954;28;19921;-80
2021/03/18 07:14:15;;;;;;;;;;;2.40;99.90;;;;;;4966741;28;19914;-73
2021/03/18 07:16:44;;;;;;;;;;;2.40;99.90;;;;;;4962321;28;20258;-74
2021/03/18 07:19:18;;;;;;;;;;;2.50;99.90;;;;;;4969017;28;19924;-74
2021/03/18 07:21:46;;;;;;;;;;;2.50;99.90;;;;;;4965542;28;19921;-74
2021/03/18 07:24:31;;;;;;;;;;;2.60;99.90;;;;;;4969595;28;19946;-74
2021/03/18 07:27:00;;;;;;;;;;;2.60;99.90;;;;;;4968307;28;19917;-73
2021/03/18 07:29:29;;;;;;;;;;;2.70;99.90;;;;;;4968794;28;19918;-74
2021/03/18 07:31:54;;;;;;;;;;;2.80;99.90;;;;;;4968190;28;19933;-79
2021/03/18 07:34:25;;;;;;;;;;;2.80;99.90;;;;;;4967663;28;20442;-77
2021/03/18 07:36:53;;;;;;;;;;;2.90;99.90;;;;;;4947890;28;20466;-74
2021/03/18 07:39:19;;;;;;;;;;;2.90;99.90;;;;;;4966612;28;20282;-73
2021/03/18 07:41:45;;;;;;;;;;;3.00;99.90;;;;;;4949782;28;19910;-73
2021/03/18 07:44:14;;;;;;;;;;;3.00;99.90;;;;;;4949046;28;20263;-74
2021/03/18 07:46:39;;;;;;;;;;;3.10;99.90;;;;;;4952626;28;19914;-74
2021/03/18 07:49:12;;;;;;;;;;;3.10;99.90;;;;;;4952841;28;20009;-72
2021/03/18 07:51:41;;;;;;;;;;;3.10;99.90;;;;;;4951410;28;20719;-72
2021/03/18 07:54:06;;;;;;;;;;;3.20;99.90;;;;;;4947814;28;19926;-73
2021/03/18 07:56:32;;;;;;;;;;;3.20;99.90;;;;;;4934374;28;19980;-74
2021/03/18 07:58:57;;;;;;;;;;;3.20;99.90;;;;;;4948531;28;19956;-72
2021/03/18 08:01:41;;;;;;;;;;;3.30;99.90;;;;;;4952410;28;19929;-73
2021/03/18 08:04:10;;;;;;;;;;;3.30;99.90;;;;;;4947495;28;19930;-73
2021/03/18 08:06:38;;;;;;;;;;;3.40;99.90;;;;;;4951091;28;19976;-72
2021/03/18 08:09:24;;;;;;;;;;;3.40;99.90;;;;;;4967224;28;19921;-74
2021/03/18 08:11:52;;;;;;;;;;;3.50;99.90;;;;;;4954523;28;19917;-73
2021/03/18 08:14:23;;;;;;;;;;;3.50;99.90;;;;;;4966181;28;19981;-73
2021/03/18 08:16:49;;;;;;;;;;;3.50;99.90;;;;;;4949045;28;19910;-74
2021/03/18 08:19:15;;;;;;;;;;;3.60;99.90;;;;;;4967402;28;19917;-73
2021/03/18 08:22:07;;;;;;;;;;;3.60;99.90;;;;;;4949056;28;20454;-74
2021/03/18 08:24:33;;;;;;;;;;;3.60;99.90;;;;;;4962787;28;19925;-73
2021/03/18 08:27:02;;;;;;;;;;;3.70;99.90;;;;;;4969698;28;19932;-73
2021/03/18 08:29:37;;;;;;;;;;;3.80;99.90;;;;;;4964477;28;19911;-73
2021/03/18 08:32:05;;;;;;;;;;;3.80;99.90;;;;;;4969092;28;19985;-73
2021/03/18 08:34:43;;;;;;;;;;;3.90;99.70;;;;;;4969718;28;20229;-74
2021/03/18 08:37:13;;;;;;;;;;;4.00;99.90;;;;;;4968897;28;19918;-74
2021/03/18 08:39:40;;;;;;;;;;;4.10;99.90;;;;;;4972393;28;19914;-73
2021/03/18 08:42:25;;;;;;;;;;;4.10;99.90;;;;;;4973037;28;19920;-73
2021/03/18 08:44:50;;;;;;;;;;;4.20;99.90;;;;;;4972822;28;19925;-74
2021/03/18 08:47:18;;;;;;;;;;;4.40;99.90;;;;;;4955077;28;19910;-73
2021/03/18 08:49:44;;;;;;;;;;;4.50;99.90;;;;;;4954134;28;19914;-73
2021/03/18 08:52:17;;;;;;;;;;;4.60;99.90;;;;;;4969232;28;20319;-75
2021/03/18 08:54:44;;;;;;;;;;;4.80;99.90;;;;;;4968923;28;19918;-75
2021/03/18 08:57:13;;;;;;;;;;;5.00;99.90;;;;;;4972302;28;19925;-73
2021/03/18 08:59:39;;;;;;;;;;;5.20;99.90;;;;;;4936508;28;20034;-73
2021/03/18 09:02:08;;;;;;;;;;;5.40;99.90;;;;;;4971467;28;20025;-74
2021/03/18 09:04:35;;;;;;;;;;;5.60;99.90;;;;;;4938194;28;20410;-74
2021/03/18 09:07:10;;;;;;;;;;;5.70;99.90;;;;;;4969699;28;20371;-75
2021/03/18 09:09:37;;;;;;;;;;;5.90;99.90;;;;;;4969828;28;19925;-74
2021/03/18 09:12:03;;;;;;;;;;;5.90;94.90;;;;;;4955542;28;19924;-74
2021/03/18 09:14:29;;;;;;;;;;;5.90;94.90;;;;;;4972845;28;19914;-74
2021/03/18 09:17:08;;;;;;;;;;;6.00;99.90;;;;;;4955562;28;19944;-75
2021/03/18 09:19:34;;;;;;;;;;;6.10;96.10;;;;;;4970596;28;19961;-75
2021/03/18 09:21:59;;;;;;;;;;;6.10;95.30;;;;;;4971040;28;19925;-74
2021/03/18 09:24:35;;;;;;;;;;;6.10;93.50;;;;;;4949495;28;19926;-74
2021/03/18 09:27:09;;;;;;;;;;;6.20;97.50;;;;;;4969619;28;19910;-74
2021/03/18 09:29:34;;;;;;;;;;;6.20;94.40;;;;;;4970663;28;19910;-74
2021/03/18 09:32:03;;;;;;;;;;;6.20;96.70;;;;;;4967005;28;19928;-74
2021/03/18 09:34:35;;;;;;;;;;;6.30;95.30;;;;;;4967004;28;20324;-74
2021/03/18 09:37:00;;;;;;;;;;;6.20;92.40;;;;;;4951729;28;19918;-74
2021/03/18 09:39:31;;;;;;;;;;;6.20;93.10;;;;;;4969855;28;19910;-74
2021/03/18 09:42:01;;;;;;;;;;;6.20;93.20;;;;;;4969691;28;20395;-74
2021/03/18 09:44:30;;;;;;;;;;;6.30;95.60;;;;;;4968846;28;20117;-75
2021/03/18 09:46:56;;;;;;;;;;;6.20;92.10;;;;;;4969794;28;19961;-74
2021/03/18 09:49:30;;;;;;;;;;;6.20;91.40;;;;;;4953431;28;19958;-74
2021/03/18 09:51:55;;;;;;;;;;;6.10;89.80;;;;;;4950072;28;19910;-74
2021/03/18 09:54:22;;;;;;;;;;;5.80;91.30;;;;;;4949585;28;19960;-74
2021/03/18 09:56:48;;;;;;;;;;;5.80;94.40;;;;;;4935609;28;19910;-74
2021/03/18 09:59:13;;;;;;;;;;;5.80;95.70;;;;;;4969559;28;19917;-75
2021/03/18 10:01:39;;;;;;;;;;;5.80;93.70;;;;;;4953142;28;19914;-74
2021/03/18 10:04:10;;;;;;;;;;;5.80;95.80;;;;;;4969070;28;19922;-74
2021/03/18 10:06:37;;;;;;;;;;;5.90;97.40;;;;;;4969399;28;19910;-74
2021/03/18 10:09:21;;;;;;;;;;;5.90;96.90;;;;;;4969305;28;19909;-74
2021/03/18 10:11:50;;;;;;;;;;;6.00;97.30;;;;;;4969366;28;19969;-74
2021/03/18 10:14:16;;;;;;;;;;;6.00;96.70;;;;;;4966500;28;19957;-74
2021/03/18 10:16:42;;;;;;;;;;;6.00;93.60;;;;;;4971075;28;19914;-74
2021/03/18 10:19:07;;;;;;;;;;;6.10;94.40;;;;;;4969896;28;20253;-77
2021/03/18 10:21:33;;;;;;;;;;;6.20;94.50;;;;;;4934724;28;19910;-77
2021/03/18 10:23:58;;;;;;;;;;;6.20;92.90;;;;;;4968543;28;20734;-78
2021/03/18 10:26:27;;;;;;;;;;;6.30;92.80;;;;;;4948639;28;19960;-75
2021/03/18 10:29:04;;;;;;;;;;;6.40;92.50;;;;;;4934233;28;19922;-74
2021/03/18 10:31:32;;;;;;;;;;;6.50;92.60;;;;;;4947707;28;20243;-75
2021/03/18 10:33:58;;;;;;;;;;;6.60;91.00;;;;;;4950294;28;20536;-73
2021/03/18 10:36:34;;;;;;;;;;;6.70;89.90;;;;;;4969333;28;19914;-74
2021/03/18 10:39:01;;;;;;;;;;;6.80;91.50;;;;;;4951020;28;20013;-74
2021/03/18 10:41:29;;;;;;;;;;;6.80;91.50;;;;;;4951753;28;19941;-74
2021/03/18 10:43:54;;;;;;;;;;;6.90;92.30;;;;;;4969007;28;20352;-74
2021/03/18 10:46:30;;;;;;;;;;;6.90;92.20;;;;;;4952592;28;19918;-74
2021/03/18 10:48:58;;;;;;;;;;;6.80;84.50;;;;;;4944344;28;20024;-74
2021/03/18 10:51:24;;;;;;;;;;;6.70;82.10;;;;;;4968809;28;19910;-74
2021/03/18 10:53:50;;;;;;;;;;;6.70;83.60;;;;;;4969887;28;19925;-74
2021/03/18 10:56:17;;;;;;;;;;;6.70;90.10;;;;;;4946140;28;20017;-74
2021/03/18 10:58:43;;;;;;;;;;;6.70;87.10;;;;;;4968936;28;19910;-74
2021/03/18 11:01:09;;;;;;;;;;;6.60;89.90;;;;;;4967539;28;19918;-73
2021/03/18 11:03:46;;;;;;;;;;;6.70;89.10;;;;;;4947296;28;20361;-73
2021/03/18 11:06:21;;;;;;;;;;;6.70;84.40;;;;;;4950180;28;19918;-74
2021/03/18 11:08:47;;;;;;;;;;;6.80;84.10;;;;;;4968293;28;19920;-74
2021/03/18 11:11:14;;;;;;;;;;;6.80;86.30;;;;;;4970317;28;20549;-74
2021/03/18 11:13:42;;;;;;;;;;;6.80;87.70;;;;;;4951521;28;20042;-74
2021/03/18 11:16:08;;;;;;;;;;;6.70;88.00;;;;;;4950413;28;20299;-74
2021/03/18 11:18:41;;;;;;;;;;;6.60;85.40;;;;;;4968455;28;19910;-74
2021/03/18 11:21:23;;;;;;;;;;;6.60;86.00;;;;;;4947304;28;20008;-74
2021/03/18 11:23:49;;;;;;;;;;;6.50;90.00;;;;;;4964077;28;19922;-74
2021/03/18 11:26:14;;;;;;;;;;;6.30;90.30;;;;;;4969758;28;20359;-73
2021/03/18 11:28:54;;;;;;;;;;;6.20;87.90;;;;;;4950938;28;19984;-76
2021/03/18 11:31:19;;;;;;;;;;;6.20;90.20;;;;;;4967355;28;20383;-74
2021/03/18 11:33:47;;;;;;;;;;;6.10;91.10;;;;;;4968430;28;20012;-74
2021/03/18 11:36:13;;;;;;;;;;;6.10;92.00;;;;;;4968469;28;20342;-74
2021/03/18 11:38:39;;;;;;;;;;;6.10;91.40;;;;;;4950595;28;19918;-74
2021/03/18 11:41:04;;;;;;;;;;;6.10;91.40;;;;;;4967794;28;20323;-74
2021/03/18 11:43:32;;;;;;;;;;;6.10;90.20;;;;;;4969441;28;19918;-75
2021/03/18 11:46:01;;;;;;;;;;;6.10;92.40;;;;;;4968110;28;19996;-74
2021/03/18 11:48:26;;;;;;;;;;;6.10;91.50;;;;;;4950450;28;19920;-74
2021/03/18 11:50:54;;;;;;;;;;;6.20;92.00;;;;;;4952785;28;20004;-74
2021/03/18 11:53:20;;;;;;;;;;;6.30;90.70;;;;;;4619380;28;10000130;-74
2021/03/18 11:55:46;;;;;;;;;;;6.30;88.40;;;;;;4945533;28;20009;-74
2021/03/18 11:58:13;;;;;;;;;;;6.40;90.00;;;;;;4966877;28;20395;-73
2021/03/18 12:00:39;;;;;;;;;;;6.40;86.60;;;;;;4963004;28;19976;-74
2021/03/18 12:03:09;;;;;;;;;;;6.40;84.50;;;;;;4959339;28;19914;-74
2021/03/18 12:05:35;;;;;;;;;;;6.50;86.20;;;;;;4607711;28;10000627;-74
2021/03/18 12:08:01;;;;;;;;;;;6.60;88.60;;;;;;4962759;28;20599;-73
2021/03/18 12:10:26;;;;;;;;;;;6.80;85.90;;;;;;4964239;28;19913;-73
2021/03/18 12:12:52;;;;;;;;;;;6.80;81.20;;;;;;4932884;28;20675;-73
2021/03/18 12:15:18;;;;;;;;;;;6.80;79.90;;;;;;4966300;28;20275;-74
2021/03/18 12:17:43;;;;;;;;;;;6.80;80.20;;;;;;4950283;28;19914;-74
2021/03/18 12:20:19;;;;;;;;;;;6.80;82.90;;;;;;4952036;28;20049;-74
2021/03/18 12:22:44;;;;;;;;;;;6.90;83.90;;;;;;4968811;28;19977;-73
2021/03/18 12:25:10;;;;;;;;;;;7.00;84.20;;;;;;4969210;28;19914;-74
2021/03/18 12:27:36;;;;;;;;;;;7.00;79.50;;;;;;4969622;28;19910;-74
2021/03/18 12:30:04;;;;;;;;;;;7.10;80.20;;;;;;4972926;28;19928;-74
2021/03/18 12:32:30;;;;;;;;;;;7.20;81.50;;;;;;4955537;28;19957;-74
2021/03/18 12:34:55;;;;;;;;;;;7.40;83.20;;;;;;4954616;28;19953;-73
2021/03/18 12:37:23;;;;;;;;;;;7.50;78.40;;;;;;4972677;28;19953;-74
2021/03/18 12:39:49;;;;;;;;;;;7.50;80.80;;;;;;4971932;28;19910;-73
2021/03/18 12:42:14;;;;;;;;;;;7.40;77.20;;;;;;4971948;28;19920;-74
2021/03/18 12:44:40;;;;;;;;;;;7.20;78.70;;;;;;4955365;28;19986;-73
2021/03/18 12:47:06;;;;;;;;;;;6.90;79.00;;;;;;4952519;28;19913;-73
2021/03/18 12:49:34;;;;;;;;;;;6.70;80.70;;;;;;4972105;28;19957;-74
2021/03/18 12:51:59;;;;;;;;;;;6.60;81.10;;;;;;4972840;28;20234;-73
2021/03/18 12:54:27;;;;;;;;;;;6.50;81.00;;;;;;4972116;28;19921;-74
2021/03/18 12:56:53;;;;;;;;;;;6.40;85.30;;;;;;4971301;28;19950;-74
2021/03/18 12:59:18;;;;;;;;;;;6.40;84.50;;;;;;4969857;28;19949;-73
2021/03/18 13:01:44;;;;;;;;;;;6.30;84.70;;;;;;4969781;28;20013;-74
2021/03/18 13:04:10;;;;;;;;;;;6.30;85.60;;;;;;4952254;28;19925;-73
2021/03/18 13:06:36;;;;;;;;;;;6.20;86.20;;;;;;4953612;28;19921;-73
2021/03/18 13:09:02;;;;;;;;;;;6.20;85.90;;;;;;4952485;28;19914;-73
2021/03/18 13:11:27;;;;;;;;;;;6.10;85.90;;;;;;4970866;28;19914;-75
2021/03/18 13:13:53;;;;;;;;;;;6.10;88.40;;;;;;4970671;28;19972;-73
2021/03/18 13:16:21;;;;;;;;;;;6.00;87.50;;;;;;4970652;28;19921;-73
2021/03/18 13:18:49;;;;;;;;;;;5.90;87.60;;;;;;4970956;28;20363;-73
2021/03/18 13:21:17;;;;;;;;;;;5.80;87.60;;;;;;4971055;28;19918;-73
2021/03/18 13:23:45;;;;;;;;;;;5.70;84.60;;;;;;4968935;28;20406;-73
2021/03/18 13:26:10;;;;;;;;;;;5.60;84.30;;;;;;4969490;28;20339;-73
2021/03/18 13:28:36;;;;;;;;;;;5.50;85.30;;;;;;4971140;28;19910;-73
2021/03/18 13:31:04;;;;;;;;;;;5.50;86.00;;;;;;4969946;28;20344;-73
2021/03/18 13:33:32;;;;;;;;;;;5.60;88.50;;;;;;4953321;28;19918;-73
2021/03/18 13:36:00;;;;;;;;;;;5.60;90.10;;;;;;4969921;28;19925;-73
2021/03/18 13:38:26;;;;;;;;;;;5.70;90.10;;;;;;4936041;28;19909;-74
2021/03/18 13:40:52;;;;;;;;;;;5.80;89.90;;;;;;4969789;28;19918;-73
2021/03/18 13:43:17;;;;;;;;;;;5.90;87.70;;;;;;4952883;28;19937;-73
2021/03/18 13:45:46;;;;;;;;;;;6.00;88.90;;;;;;4952927;28;20061;-73
2021/03/18 13:48:12;;;;;;;;;;;6.10;89.30;;;;;;4952268;28;19914;-73
2021/03/18 13:50:38;;;;;;;;;;;6.20;87.30;;;;;;4937260;28;20358;-73
2021/03/18 13:53:04;;;;;;;;;;;6.10;85.20;;;;;;4953557;28;20328;-73
2021/03/18 13:55:30;;;;;;;;;;;6.10;87.50;;;;;;4955034;28;19968;-73
2021/03/18 13:57:55;;;;;;;;;;;6.10;87.80;;;;;;4953799;28;19910;-73
2021/03/18 14:00:21;;;;;;;;;;;5.90;86.80;;;;;;4950219;28;19921;-73
2021/03/18 14:02:46;;;;;;;;;;;5.90;86.00;;;;;;4952890;28;20089;-74
2021/03/18 14:05:12;;;;;;;;;;;5.80;84.50;;;;;;4969113;28;19933;-73
2021/03/18 14:07:38;;;;;;;;;;;5.70;84.90;;;;;;4970829;28;19910;-73
2021/03/18 14:10:04;;;;;;;;;;;5.70;87.60;;;;;;4954044;28;19943;-74
2021/03/18 14:12:29;;;;;;;;;;;5.70;88.30;;;;;;4971257;28;20001;-73
2021/03/18 14:14:55;;;;;;;;;;;5.70;88.50;;;;;;4970334;28;19918;-74
2021/03/18 14:17:20;;;;;;;;;;;5.70;88.30;;;;;;4970657;28;19910;-74
2021/03/18 14:19:46;;;;;;;;;;;5.70;87.10;;;;;;4954730;28;19910;-73
2021/03/18 14:22:11;;;;;;;;;;;5.80;88.60;;;;;;4953022;28;19913;-74
2021/03/18 14:24:37;;;;;;;;;;;5.80;86.40;;;;;;4970696;28;20363;-78
2021/03/18 14:27:03;;;;;;;;;;;5.70;83.50;;;;;;4969087;28;19916;-78
2021/03/18 14:29:28;;;;;;;;;;;5.70;86.50;;;;;;4969077;28;19918;-73
2021/03/18 14:31:56;;;;;;;;;;;5.70;86.20;;;;;;4951388;28;20383;-73
2021/03/18 14:34:22;;;;;;;;;;;5.70;86.00;;;;;;4948220;28;19933;-74